首页
METAR-TAF:

METAR-TAF

机场 :

Chicago Rockford International Airport

罗克福德, 伊利诺伊州, 美国

纬度: 42-11-34N, 经度: 089-05-36W, 海拔: 224米

当前天气观测

该预报发布于1小时和8分钟前的05:54 UTC
风速6节,风向东南
温度 -1°C
湿度 86%
气压 1023 hPa
能見度: 11.3公里
少量云层高于19000英尺
阴天层高于25000英尺

METAR: KRFD 170554Z 14006KT 7SM FEW190 OVC250 M01/M03 A3020 RMK AO2 SLP235 4/001 T10111033 10017 21017 400441072 58007

时间: 01:02 (07:02 UTC)

预报

该预报发布于1小时和35分钟前的05:27 UTC
预报有效从17日的 06点(UTC)到 18日的 06点(UTC)
风速7节,风向南转南东
能見度: 9.7公里
阴天层高于15000英尺
轻雾
短暂存在
从 17日的 10点(UTC)到 17日的 13点(UTC)
能見度: 8.0公里
轻雾
从 17日的 1600点(UTC)
风速8节,风向
能見度: 10公里
少量云层高于3000英尺
阴天层高于6000英尺
附近有阵雨
从 17日的 1900点(UTC)
风速6节,风向南转西南
能見度: 9.7公里
多云层高于2500英尺
阴天层高于4000英尺
小雨, 轻雾
从 18日的 0000点(UTC)
风速5节,风向西转西南
能見度: 9.7公里
阴天层高于1200英尺
小毛毛雨, 轻雾
从 18日的 0300点(UTC)
风速8节,风向西转西北
能見度: 10公里
散云层高于800英尺
阴天层高于1000英尺

TAF: KRFD 170527Z 1706/1806 16007KT 6SM BR OVC150 TEMPO 1710/1713 5SM BR FM171600 17008KT P6SM VCSH FEW030 OVC060 FM171900 20006KT 6SM -RA BR BKN025 OVC040 FM180000 25005KT 6SM -DZ BR OVC012 FM180300 30008KT P6SM SCT008 OVC010

超过4000个机场的气象观测和天气预报(METAR&TAF报告)。

可查询的气象台以黄色和红色小点在地图上表示。

将鼠标移到小点上方,可查看气象台名称。

然后点击查看天气观测和预报。

如需切换地图:点击带黑十字的绿色按钮放大地图;点击带横线的绿色按钮缩小地图;或者点击绿色箭头查看邻近地区的地图。


METAR-TAF: